• Join FlightAware (Why Join?)
  • Login
  • US Flag 
02:00AM EDT


 

Airport Tracker/Info


-or-


 

Live Flight TrackerFlight Track Log ✈ BJS612 ✈ 09-May-2013 ✈ KCLE - KSGJ

Flight Track Log - Related Links

Times and Time Zones

All times are in EDT time to prevent confusion due to time zone crossing. See the BJS612 flight status page for this flight to view local times or setup timezone preferences in your user account.

Time Position Orientation Groundspeed Altitude Reporting Facility
EDT Latitude Longitude Course Direction KTS MPH feet Rate Location/Type
03:52PM 41.4133 -81.8317 86° East 178 205 2,100  Level Cleveland Center
03:52PM 41.4158 -81.7792 86° East 209 241 3,600 2,880 Climbing Cleveland Center
03:52PM 41.4158 -81.7736 90° East 211 243 4,500 2,400 Climbing Cleveland Center
03:53PM 41.3811 -81.7150 128° Southeast 248 285 6,000 2,700 Climbing Cleveland Center
03:55PM 41.2589 -81.6300 152° Southeast 286 329 12,000 3,600 Climbing Cleveland Center
03:57PM 41.1028 -81.8094 221° Southwest 333 383 20,400 3,720 Climbing Cleveland Center
03:58PM 41.0225 -81.9069 223° Southwest 376 433 23,300 2,820 Climbing Cleveland Center
03:59PM 40.9381 -82.0069 222° Southwest 401 461 26,100 2,460 Climbing Cleveland Center
04:01PM 40.7144 -82.1792 210° Southwest 436 502 31,500 2,220 Climbing Indianapolis Center
04:02PM 40.6069 -82.2575 209° Southwest 438 504 33,500 1,380 Climbing Indianapolis Center
04:03PM 40.4761 -82.3539 209° Southwest 454 522 34,400 1,020 Climbing Indianapolis Center
04:04PM 40.3606 -82.4378 209° Southwest 467 537 35,700 720 Climbing Indianapolis Center
04:05PM 40.2475 -82.5178 208° Southwest 461 531 36,000 240 Climbing Indianapolis Center
04:07PM 40.1300 -82.5772 201° Southwest 447 514 36,200 960 Climbing Indianapolis Center
04:08PM 39.9983 -82.5686 177° South 465 535 38,100 1,320 Climbing Indianapolis Center
04:09PM 39.8678 -82.5489 173° South 465 535 39,000 960 Climbing Indianapolis Center
04:10PM 39.7344 -82.5308 174° South 473 544 40,200 1,140 Climbing Indianapolis Center
04:11PM 39.6039 -82.5131 174° South 466 536 41,400 960 Climbing Indianapolis Center
04:12PM 39.4742 -82.4958 174° South 462 532 42,300 720 Climbing Indianapolis Center
04:13PM 39.3292 -82.4756 174° South 460 529 43,000 300 Climbing Indianapolis Center
04:14PM 39.2006 -82.4578 174° South 465 535 43,000  Level Indianapolis Center
04:15PM 39.0736 -82.4394 174° South 460 529 43,000  Level Indianapolis Center
04:16PM 38.9439 -82.4217 174° South 467 537 43,000  Level Indianapolis Center
04:17PM 38.8153 -82.4056 174° South 467 537 43,000  Level Indianapolis Center
04:18PM 38.6603 -82.3856 174° South 467 537 43,000  Level Indianapolis Center
04:19PM 38.5325 -82.3681 174° South 467 537 43,000  Level Indianapolis Center
04:20PM 38.4042 -82.3514 174° South 466 536 43,000  Level Indianapolis Center
04:21PM 38.2753 -82.3356 174° South 467 537 43,000  Level Indianapolis Center
04:22PM 38.1456 -82.3175 174° South 469 540 43,000  Level Indianapolis Center
04:23PM 37.9956 -82.2992 174° South 465 535 43,000  Level Indianapolis Center
04:24PM 37.8644 -82.2822 174° South 469 540 43,000  Level Indianapolis Center
04:25PM 37.7339 -82.2656 174° South 470 541 43,000  Level Indianapolis Center
04:26PM 37.6031 -82.2478 174° South 470 541 43,000  Level Indianapolis Center
04:27PM 37.4514 -82.2292 174° South 467 537 43,000  Level Indianapolis Center
04:28PM 37.3217 -82.2114 174° South 466 536 43,000  Level Indianapolis Center
04:29PM 37.2769 -82.2078 176° South 462 532 43,000  Level Atlanta Center
04:30PM 37.1475 -82.1900 174° South 467 537 43,000  Level Atlanta Center
04:31PM 37.0200 -82.1722 174° South 462 532 43,000  Level Atlanta Center
04:32PM 36.8906 -82.1572 175° South 467 537 43,000  Level Atlanta Center
04:33PM 36.7608 -82.1394 174° South 467 537 43,000  Level Atlanta Center
04:34PM 36.6189 -82.1222 174° South 467 537 43,000  Level Atlanta Center
04:35PM 36.4894 -82.1047 174° South 467 537 43,000  Level Atlanta Center
04:36PM 36.3597 -82.0922 176° South 467 537 43,000  Level Atlanta Center
04:37PM 36.2325 -82.0772 175° South 462 532 43,000  Level Atlanta Center
04:38PM 36.1069 -82.0625 175° South 456 525 43,000  Level Atlanta Center
04:39PM 35.9775 -82.0450 174° South 467 537 43,000  Level Atlanta Center
04:40PM 35.8458 -82.0303 175° South 473 544 43,000  Level Atlanta Center
04:41PM 35.7142 -82.0131 174° South 473 544 43,000  Level Atlanta Center
04:42PM 35.5844 -81.9983 175° South 473 544 43,000  Level Atlanta Center
04:43PM 35.4550 -81.9839 175° South 478 550 43,000  Level Atlanta Center
04:44PM 35.3211 -81.9667 174° South 483 556 43,000  Level Atlanta Center
04:45PM 35.1936 -81.9497 174° South 483 556 43,000  Level Atlanta Center
04:46PM 35.0617 -81.9353 175° South 478 550 43,000  Level Atlanta Center
04:47PM 34.9347 -81.9486 185° South 471 542 43,000  Level Atlanta Center
04:48PM 34.8056 -81.9542 182° South 471 542 43,000  Level Atlanta Center
04:49PM 34.6933 -81.9875 194° South 466 536 43,000  Level Atlanta Center
04:50PM 34.5808 -82.0078 188° South 466 536 43,000  Level Atlanta Center
04:51PM 34.4311 -82.0342 188° South 466 536 43,000  Level Atlanta Center
04:52PM 34.3061 -82.0447 184° South 466 536 43,000  Level Atlanta Center
04:53PM 34.1783 -82.0250 173° South 461 531 43,000  Level Atlanta Center
04:54PM 34.0531 -82.0103 174° South 461 531 43,000  Level Atlanta Center
04:55PM 33.9253 -81.9883 172° South 461 531 43,000 -180 Level Atlanta Center
04:56PM 33.8228 -81.9758 174° South 467 537 42,700 -600 Descending Atlanta Center
04:57PM 33.6847 -81.9567 173° South 467 537 41,900 -1,140 Descending Atlanta Center
04:58PM 33.5572 -81.9375 173° South 467 537 40,500 -1,560 Descending Atlanta Center
04:59PM 33.4336 -81.9231 174° South 462 532 38,800 -1,680 Descending Atlanta Center
05:00PM 33.3144 -81.9061 173° South 448 516 37,200 -1,620 Descending Atlanta Center
05:01PM 33.1972 -81.8889 173° South 442 509 35,600 -1,560 Descending Atlanta Center
05:02PM 33.0739 -81.8747 175° South 442 509 34,100 -1,500 Descending Atlanta Center
05:03PM 32.9419 -81.8556 173° South 462 532 32,600 -1,680 Descending Atlanta Center
05:04PM 32.7822 -81.8325 173° South 510 587 30,700 -1,680 Descending Jacksonville Center
05:05PM 32.6525 -81.8192 175° South 482 555 29,100 -1,380 Descending Jacksonville Center
05:06PM 32.5208 -81.8011 173° South 480 552 28,000 -1,080 Descending Jacksonville Center
05:07PM 32.3997 -81.7878 175° South 480 552 27,000 -1,140 Descending Jacksonville Center
05:08PM 32.2597 -81.7650 172° South 480 552 25,800 -1,080 Descending Jacksonville Center
05:09PM 32.1447 -81.7517 174° South 469 540 24,900 -900 Descending Jacksonville Center
05:10PM 32.0089 -81.7311 173° South 462 532 24,000 -480 Descending Jacksonville Center
05:11PM 31.8875 -81.7156 174° South 443 510 24,000  Level Jacksonville Center
05:12PM 31.7767 -81.7000 173° South 443 510 24,000  Level Jacksonville Center
05:13PM 31.6431 -81.6822 174° South 443 510 24,000 -480 Level Jacksonville Center
05:14PM 31.5322 -81.6667 173° South 443 510 23,100 -960 Descending Jacksonville Center
05:15PM 31.4022 -81.6292 166° South 448 516 22,100 -600 Descending Jacksonville Center
05:16PM 31.2911 -81.5628 153° Southeast 444 511 22,000 -60 Descending Jacksonville Center
05:17PM 31.1839 -81.4961 152° Southeast 439 505 22,000 -540 Level Jacksonville Center
05:18PM 31.0808 -81.4297 151° Southeast 439 505 21,000 -1,380 Descending Jacksonville Center
05:19PM 30.9839 -81.3708 152° Southeast 428 493 19,300 -2,100 Descending Jacksonville Center
05:20PM 30.8936 -81.3117 151° Southeast 394 453 16,800 -2,520 Descending Jacksonville Center
05:20PM 30.8389 -81.2789 153° Southeast 370 426 15,400 -2,520 Descending Jacksonville Center
05:21PM 30.8050 -81.2575 152° Southeast 373 429 14,300 -2,400 Descending Jacksonville Center
05:22PM 30.7147 -81.2011 152° Southeast 361 415 12,000 -1,800 Descending Jacksonville Center
05:23PM 30.6369 -81.1664 159° South 337 388 11,000 -1,080 Descending Jacksonville Center
05:24PM 30.5369 -81.1922 193° South 361 415 10,000 -1,140 Descending Jacksonville Center
05:25PM 30.4431 -81.1939 181° South 332 382 8,600 -1,800 Descending Jacksonville Center
05:26PM 30.3658 -81.1928 179° South 301 346 6,400 -2,040 Descending Jacksonville Center
05:27PM 30.2889 -81.2206 197° South 284 327 4,700 -1,260 Descending Jacksonville Center
05:28PM 30.2122 -81.2508 199° South 255 293 3,900 -540 Descending Jacksonville Center
05:29PM 30.1539 -81.2733 198° South 269 310 3,700 -540 Descending Jacksonville Center
05:30PM 30.0853 -81.2986 198° South 264 304 2,900 -1,080 Descending Jacksonville Center
05:31PM 30.0297 -81.3522 220° Southwest 229 264 1,600 -960 Descending Jacksonville Center
05:32PM 30.0028 -81.3839 226° Southwest 109 125 1,100 -540 Descending Jacksonville Center
05:34PM 29.9592 -81.3397 190° South  Level Estimated
05:41PM 29.9592 -81.3397 190° South  Level Estimated